Detall de PIREP

Printer-friendly versionPDF version

[2014/09/28 08:42:00]
Flight IATA:CT3309
Pilot Number:012
Company ICAO:CAT
Aircraft Type:B763/F
PAX:263
Departing Airport: HLLT
Destination Airport: LEZG
Alternate Airport:LEBL
Online: VATSIM
Route:TANLI UP128 TBS UA31 ALR UG30 SADAF UN856 RES UN863 ARBEK UN725 LOBAR
Flight Level:F380
No Slew and time accel
No pause
Crash detect
Detect pilot in Cockpit between each 30 and 45 minutes
08:42 Zero fuel Weight: 242129 Lbs, Fuel Weight: 40374 Lbs
08:42 VATSIM:No METAR available for HLLT.
08:42 VATSIM:LEZG 280830Z 10006KT 070V140 9999 FEW017 SCT025 BKN070 18/15 Q1023
08:43 Parking Brakes off
08:47 Take-off
08:47 Take off Weight: 281295 Lbs
08:47 Wind: 033º @ 008 Knots Heading: 091º
08:47 POS N32º 39´ 53´´ E013º 08´ 34´´
08:47 Gear Up: 163 Knots
08:47 Flaps:3 at 163 Knots
08:48 Flaps:2 at 171 Knots
08:48 Flaps:1 at 195 Knots
08:49 Flaps:0 at 214 Knots
09:02 Wind:257º@015 Knots Heading: 304º Ground Speed: 464 Knots Altitude 37860 ft
09:02 TOC
09:02 Fuel Weight: 33065 Lb
09:17 Wind:270º@016 Knots Heading: 304º Ground Speed: 453 Knots Altitude 38290 ft
09:32 Wind:283º@016 Knots Heading: 301º Ground Speed: 461 Knots Altitude 38375 ft
09:47 Wind:266º@010 Knots Heading: 276º Ground Speed: 470 Knots Altitude 38303 ft
10:02 Wind:187º@030 Knots Heading: 272º Ground Speed: 475 Knots Altitude 38257 ft
10:17 Wind:186º@048 Knots Heading: 324º Ground Speed: 510 Knots Altitude 38231 ft
10:32 Wind:184º@048 Knots Heading: 352º Ground Speed: 519 Knots Altitude 38254 ft
10:41 TOD
10:41 Fuel Weight: 18636 Lb
10:47 Wind:189º@022 Knots Heading: 282º Ground Speed: 420 Knots Altitude 19901 ft
10:55 Flaps:1 at 237 Knots
10:55 Flaps:2 at 221 Knots
10:55 Flaps:3 at 207 Knots
10:55 Gear Down: 192 Knots
10:56 Flaps:4 at 166 Knots
10:57 Flaps:5 at 156 Knots
10:58 Flaps:4 at 178 Knots
10:58 Flaps:5 at 179 Knots
10:58 Flaps:4 at 180 Knots
10:58 Flaps:5 at 180 Knots
10:58 Flaps:4 at 179 Knots
10:58 Flaps:5 at 180 Knots
10:58 Flaps:4 at 179 Knots
10:58 Flaps:5 at 174 Knots
10:59 Flaps:6 at 131 Knots
11:02 Wind:114º@008 Knots Heading: 301º Ground Speed: 155 Knots Altitude 1624 ft
11:03 TouchDown:Rate -249 ft/min Speed: 120 Knots
11:03 Flaps:4 at 67 Knots
11:03 Flaps:1 at 64 Knots
11:03 VATSIM:LEZG 281030Z 10008KT 080V140 9999 FEW012 BKN015 19/16 Q1023
11:03 Land
11:03 Wind:109º@008 Knots
11:03 Heading: 299º
11:03 Flight Duration: 02:16
11:03 Landing Weight: 258190 Lbs
11:03 POS N41º 39´ 39´´ W001º 01´ 17´´
11:05 Parking brakes on
11:05 Block to Block Duration: 02:22
11:05 Final Fuel: 15656 Lbls
11:05 Spent Fuel: 24717 Lbls
11:05 Flight Length: 1002 NM
11:05 TOD Land Length: 111 NM

Exportar CSV

Powered by Drupal - Modified by Danger4k